createdAt,value
2023-02-06T00:01:30.533Z,84.48
2023-02-06T00:03:58.749Z,85.22
2023-02-06T00:06:26.728Z,84.97
2023-02-06T00:08:56.550Z,84.96
2023-02-06T00:11:24.726Z,86.09
2023-02-06T00:13:53.183Z,85.60
2023-02-06T00:16:22.986Z,85.79
2023-02-06T00:18:51.758Z,85.08
2023-02-06T00:21:22.088Z,85.38
2023-02-06T00:23:50.720Z,84.98
2023-02-06T00:26:20.196Z,84.79
2023-02-06T00:28:48.709Z,84.26
2023-02-06T00:31:17.162Z,84.37
2023-02-06T00:33:45.124Z,83.40
2023-02-06T00:36:13.350Z,83.98
2023-02-06T00:38:41.385Z,83.75
2023-02-06T00:41:09.583Z,83.29
2023-02-06T00:43:38.978Z,83.44
2023-02-06T00:46:07.068Z,83.45
2023-02-06T00:48:34.932Z,83.55
2023-02-06T00:51:02.886Z,83.56
2023-02-06T00:53:30.762Z,82.94
2023-02-06T00:55:58.841Z,83.12
2023-02-06T00:58:26.905Z,83.16
2023-02-06T01:00:58.234Z,82.42
2023-02-06T01:03:27.052Z,82.48
2023-02-06T01:05:54.979Z,82.83
2023-02-06T01:08:23.026Z,82.87
2023-02-06T01:10:50.910Z,81.65
2023-02-06T01:13:18.884Z,81.65
2023-02-06T01:15:46.950Z,81.94
2023-02-06T01:18:17.564Z,81.87
2023-02-06T01:20:45.705Z,81.94
2023-02-06T01:23:13.857Z,82.57
2023-02-06T01:25:41.819Z,82.46
2023-02-06T01:28:09.752Z,82.34
2023-02-06T01:30:37.723Z,81.72
2023-02-06T01:33:05.752Z,81.57
2023-02-06T01:35:35.449Z,81.57
2023-02-06T01:38:03.510Z,82.28
2023-02-06T01:40:31.483Z,82.48
2023-02-06T01:42:59.589Z,82.56
2023-02-06T01:45:46.294Z,80.82
2023-02-06T01:48:22.150Z,80.62
2023-02-06T01:50:54.980Z,81.57
2023-02-06T01:53:24.519Z,81.65
2023-02-06T01:55:55.805Z,82.56
2023-02-06T01:58:29.223Z,81.78
2023-02-06T02:00:58.781Z,81.73
2023-02-06T02:03:28.060Z,81.23
2023-02-06T02:06:02.386Z,81.37
2023-02-06T02:08:35.227Z,80.98
2023-02-06T02:11:05.484Z,80.37
2023-02-06T02:13:36.571Z,81.79
2023-02-06T02:16:13.988Z,81.31
2023-02-06T02:19:03.813Z,81.81
2023-02-06T02:22:04.737Z,81.75
2023-02-06T02:24:52.286Z,82.36
2023-02-06T02:28:06.794Z,82.22
2023-02-06T02:30:52.578Z,81.93
2023-02-06T02:33:50.705Z,82.03
2023-02-06T02:36:27.326Z,82.25
2023-02-06T02:39:04.467Z,81.35
2023-02-06T02:41:39.242Z,82.25
2023-02-06T02:44:11.532Z,81.29
2023-02-06T02:46:42.473Z,82.45
2023-02-06T02:49:14.457Z,81.87
2023-02-06T02:51:44.904Z,82.19
2023-02-06T02:54:12.813Z,81.93
2023-02-06T02:56:40.931Z,81.42
2023-02-06T02:59:14.447Z,81.56
2023-02-06T03:01:49.852Z,81.83
2023-02-06T03:04:24.083Z,81.42
2023-02-06T03:07:10.659Z,81.63
2023-02-06T03:09:52.357Z,82.03
2023-02-06T03:12:27.019Z,82.29
2023-02-06T03:14:59.298Z,82.17
2023-02-06T03:17:34.562Z,82.05
2023-02-06T03:20:05.412Z,82.77
2023-02-06T03:22:37.136Z,82.47
2023-02-06T03:25:08.606Z,81.11
2023-02-06T03:27:40.246Z,82.28
2023-02-06T03:30:10.751Z,82.06
2023-02-06T03:32:43.455Z,82.00
2023-02-06T03:35:16.928Z,81.69
2023-02-06T03:37:47.946Z,81.97
2023-02-06T03:40:16.636Z,81.58
2023-02-06T03:42:49.631Z,81.95
2023-02-06T03:45:24.250Z,81.90
2023-02-06T03:47:54.466Z,81.21
2023-02-06T03:50:24.715Z,81.56
2023-02-06T03:52:57.394Z,82.52
2023-02-06T03:55:26.251Z,82.13
2023-02-06T03:57:56.881Z,81.33
2023-02-06T04:00:25.466Z,81.66
2023-02-06T04:02:56.203Z,81.82
2023-02-06T04:05:24.208Z,82.79
2023-02-06T04:07:54.013Z,81.73
2023-02-06T04:10:21.965Z,82.15
2023-02-06T04:12:50.015Z,81.92
2023-02-06T04:15:18.056Z,82.02
2023-02-06T04:17:58.846Z,81.90
2023-02-06T04:20:27.949Z,81.68
2023-02-06T04:22:57.514Z,81.96
2023-02-06T04:25:25.928Z,82.38
2023-02-06T04:27:53.935Z,80.37
2023-02-06T04:30:22.305Z,81.05
2023-02-06T04:32:50.259Z,81.60
2023-02-06T04:35:18.097Z,80.81
2023-02-06T04:37:46.050Z,80.60
2023-02-06T04:40:15.418Z,80.67
2023-02-06T04:42:43.422Z,79.91
2023-02-06T04:45:11.643Z,80.55
2023-02-06T04:47:39.776Z,80.13
2023-02-06T04:50:08.601Z,80.94
2023-02-06T04:52:36.662Z,81.10
2023-02-06T04:55:04.858Z,81.83
2023-02-06T04:57:34.198Z,81.30
2023-02-06T05:00:02.133Z,80.97
2023-02-06T05:02:30.056Z,81.69
2023-02-06T05:04:58.225Z,81.21
2023-02-06T05:07:26.393Z,81.21
2023-02-06T05:09:54.316Z,81.51
2023-02-06T05:12:24.611Z,81.39
2023-02-06T05:14:53.959Z,81.65
2023-02-06T05:17:23.690Z,81.70
2023-02-06T05:19:51.702Z,81.24
2023-02-06T05:22:19.899Z,81.57
2023-02-06T05:24:51.798Z,80.82
2023-02-06T05:27:20.493Z,81.38
2023-02-06T05:29:49.450Z,80.69
2023-02-06T05:32:20.109Z,81.39
2023-02-06T05:34:48.035Z,81.46
2023-02-06T05:37:15.903Z,81.64
2023-02-06T05:39:43.938Z,80.88
2023-02-06T05:42:11.848Z,81.87
2023-02-06T05:44:39.696Z,81.64
2023-02-06T05:47:07.651Z,81.83
2023-02-06T05:49:36.967Z,82.56
2023-02-06T05:52:04.969Z,83.25
2023-02-06T05:54:33.232Z,82.28
2023-02-06T05:57:01.610Z,82.97
2023-02-06T05:59:30.362Z,83.72
2023-02-06T06:01:58.789Z,83.64
2023-02-06T06:04:27.274Z,83.23
2023-02-06T06:06:56.896Z,84.29
2023-02-06T06:09:25.238Z,83.75
2023-02-06T06:11:53.393Z,83.81
2023-02-06T06:14:21.647Z,83.70
2023-02-06T06:16:49.572Z,84.17
2023-02-06T06:19:17.936Z,83.44
2023-02-06T06:21:45.823Z,84.01
2023-02-06T06:24:15.201Z,83.08
2023-02-06T06:26:43.079Z,83.30
2023-02-06T06:29:10.965Z,83.03
2023-02-06T06:31:39.038Z,83.51
2023-02-06T06:34:06.919Z,83.58
2023-02-06T06:36:34.848Z,84.11
2023-02-06T06:39:03.259Z,84.07
2023-02-06T06:41:32.513Z,83.80
2023-02-06T06:44:00.392Z,83.23
2023-02-06T06:46:28.284Z,83.09
2023-02-06T06:48:56.268Z,83.05
2023-02-06T06:51:24.090Z,82.75
2023-02-06T06:53:51.904Z,82.08
2023-02-06T06:56:19.723Z,82.84
2023-02-06T06:58:49.088Z,82.71
2023-02-06T07:01:17.637Z,82.67
2023-02-06T07:03:48.180Z,82.61
2023-02-06T07:06:16.659Z,82.32
2023-02-06T07:08:44.592Z,82.61
2023-02-06T07:11:14.581Z,82.50
2023-02-06T07:13:43.018Z,82.94
2023-02-06T07:16:12.974Z,82.39
2023-02-06T07:18:41.977Z,81.59
2023-02-06T07:21:10.338Z,81.88
2023-02-06T07:23:38.715Z,82.45
2023-02-06T07:26:06.853Z,81.66
2023-02-06T07:28:35.111Z,81.87
2023-02-06T07:31:04.106Z,80.90
2023-02-06T07:33:33.405Z,81.46
2023-02-06T07:36:03.882Z,81.28
2023-02-06T07:38:32.570Z,80.77
2023-02-06T07:41:02.596Z,81.16
2023-02-06T07:43:30.642Z,83.39
2023-02-06T07:46:00.925Z,82.85
2023-02-06T07:48:29.128Z,81.16
2023-02-06T07:50:58.611Z,80.74
2023-02-06T07:53:26.495Z,81.64
2023-02-06T07:55:54.305Z,81.29
2023-02-06T07:58:22.089Z,79.85
2023-02-06T08:00:50.122Z,79.76
2023-02-06T08:03:18.070Z,79.03
2023-02-06T08:05:45.960Z,78.94
2023-02-06T08:08:15.363Z,78.07
2023-02-06T08:10:43.191Z,78.32
2023-02-06T08:13:11.091Z,78.12
2023-02-06T08:15:38.934Z,78.18
2023-02-06T08:18:06.779Z,78.20
2023-02-06T08:20:34.606Z,78.76
2023-02-06T08:23:02.588Z,79.91
2023-02-06T08:25:31.854Z,80.09
2023-02-06T08:27:59.728Z,79.89
2023-02-06T08:30:27.722Z,79.86
2023-02-06T08:32:55.575Z,80.48
2023-02-06T08:35:23.479Z,79.60
2023-02-06T08:37:51.344Z,81.90
2023-02-06T08:40:21.218Z,81.38
2023-02-06T08:42:52.530Z,80.87
2023-02-06T08:45:20.682Z,79.78
2023-02-06T08:47:48.525Z,79.63
2023-02-06T08:50:17.065Z,78.62
2023-02-06T08:52:44.921Z,79.95
2023-02-06T08:55:12.735Z,78.83
2023-02-06T08:57:40.603Z,78.93
2023-02-06T09:00:11.407Z,78.70
2023-02-06T09:02:39.283Z,76.97
2023-02-06T09:05:07.447Z,77.02
2023-02-06T09:07:35.868Z,77.25
2023-02-06T09:10:05.332Z,77.48
2023-02-06T09:12:33.158Z,77.07
2023-02-06T09:15:01.667Z,75.96
2023-02-06T09:17:31.787Z,76.38
2023-02-06T09:19:59.624Z,76.14
2023-02-06T09:22:28.038Z,75.90
2023-02-06T09:24:56.142Z,75.74
2023-02-06T09:27:23.962Z,74.31
2023-02-06T09:29:51.729Z,75.96
2023-02-06T09:32:19.665Z,75.62
2023-02-06T09:34:49.447Z,75.38
2023-02-06T09:37:17.820Z,74.93
2023-02-06T09:39:45.747Z,75.65
2023-02-06T09:42:20.409Z,76.88
2023-02-06T09:44:53.596Z,75.39
2023-02-06T09:47:25.865Z,75.93
2023-02-06T09:49:59.059Z,75.21
2023-02-06T09:52:56.879Z,75.89
2023-02-06T09:55:31.316Z,76.88
2023-02-06T09:58:08.631Z,76.08
2023-02-06T10:00:45.642Z,74.80
2023-02-06T10:03:36.679Z,74.42
2023-02-06T10:06:15.828Z,74.37
2023-02-06T10:08:50.415Z,75.49
2023-02-06T10:11:26.631Z,73.92
2023-02-06T10:13:58.785Z,72.09
2023-02-06T10:16:37.768Z,73.43
2023-02-06T10:19:10.668Z,74.08
2023-02-06T10:21:42.915Z,74.31
2023-02-06T10:24:19.995Z,74.96
2023-02-06T10:26:49.073Z,74.93
2023-02-06T10:29:22.554Z,76.34
2023-02-06T10:32:07.419Z,77.56
2023-02-06T10:35:06.936Z,75.72
2023-02-06T10:38:02.683Z,76.92
2023-02-06T10:40:40.336Z,76.74
2023-02-06T10:43:18.327Z,78.88
2023-02-06T10:45:53.005Z,78.85
2023-02-06T10:48:29.657Z,78.63
2023-02-06T10:51:01.773Z,80.46
2023-02-06T10:53:35.801Z,79.76
2023-02-06T10:56:07.868Z,79.64
2023-02-06T10:58:41.761Z,79.60
2023-02-06T11:01:25.631Z,80.41
2023-02-06T11:04:00.119Z,80.37
2023-02-06T11:06:31.164Z,78.75
2023-02-06T11:09:00.691Z,79.96
2023-02-06T11:11:30.837Z,80.78
2023-02-06T11:14:09.092Z,78.99
2023-02-06T11:16:37.606Z,78.44
2023-02-06T11:19:18.919Z,78.25
2023-02-06T11:21:51.770Z,78.12
2023-02-06T11:24:25.568Z,78.82
2023-02-06T11:26:58.506Z,79.00
2023-02-06T11:29:28.925Z,79.23
2023-02-06T11:31:59.706Z,78.40
2023-02-06T11:34:32.751Z,79.33
2023-02-06T11:37:02.977Z,78.53
2023-02-06T11:39:33.674Z,79.01
2023-02-06T11:42:04.623Z,79.53
2023-02-06T11:44:38.110Z,78.36
2023-02-06T11:47:29.441Z,77.61
2023-02-06T11:49:57.783Z,77.18
2023-02-06T11:52:31.685Z,76.46
2023-02-06T11:55:03.131Z,74.37
2023-02-06T11:57:36.100Z,75.45
2023-02-06T12:00:21.267Z,73.84
2023-02-06T12:02:53.884Z,75.38
2023-02-06T12:05:26.122Z,74.92
2023-02-06T12:08:00.702Z,74.38
2023-02-06T12:10:32.569Z,77.06
2023-02-06T12:13:06.830Z,75.96
2023-02-06T12:15:47.896Z,76.64
2023-02-06T12:18:20.004Z,76.69
2023-02-06T12:20:56.472Z,75.78
2023-02-06T12:23:29.187Z,74.78
2023-02-06T12:26:01.517Z,76.33
2023-02-06T12:28:39.764Z,75.23
2023-02-06T12:31:14.169Z,75.17
2023-02-06T12:33:45.784Z,76.96
2023-02-06T12:36:18.102Z,75.46
2023-02-06T12:38:50.146Z,74.45
2023-02-06T12:41:40.767Z,73.90
2023-02-06T12:44:22.966Z,75.99
2023-02-06T12:46:56.287Z,77.07
2023-02-06T12:49:29.505Z,76.38
2023-02-06T12:52:04.891Z,77.46
2023-02-06T12:54:38.771Z,76.41
2023-02-06T12:57:15.670Z,76.00
2023-02-06T13:00:12.861Z,75.46
2023-02-06T13:03:22.261Z,74.89
2023-02-06T13:05:53.652Z,75.84
2023-02-06T13:08:27.732Z,76.75
2023-02-06T13:11:05.106Z,76.50
2023-02-06T13:13:38.066Z,76.67
2023-02-06T13:16:07.911Z,75.50
2023-02-06T13:19:01.557Z,76.31
2023-02-06T13:21:32.374Z,76.95
2023-02-06T13:24:18.854Z,75.89
2023-02-06T13:27:04.284Z,75.79
2023-02-06T13:29:34.782Z,75.50
2023-02-06T13:32:30.875Z,75.13
2023-02-06T13:35:07.919Z,74.57
2023-02-06T13:37:38.296Z,74.50
2023-02-06T13:40:20.989Z,74.29
2023-02-06T13:42:52.809Z,73.96
2023-02-06T13:45:25.999Z,73.71
2023-02-06T13:48:24.452Z,73.89
2023-02-06T13:51:08.956Z,73.38
2023-02-06T13:54:12.745Z,72.79
2023-02-06T13:56:59.651Z,73.00
2023-02-06T13:59:31.227Z,72.64
2023-02-06T14:02:12.189Z,73.00
2023-02-06T14:04:41.182Z,72.64
2023-02-06T14:07:31.486Z,72.30
2023-02-06T14:10:38.632Z,71.31
2023-02-06T14:13:20.032Z,71.59
2023-02-06T14:15:55.852Z,72.38
2023-02-06T14:18:38.284Z,72.16
2023-02-06T14:21:17.001Z,71.57
2023-02-06T14:24:16.455Z,72.16
2023-02-06T14:26:53.836Z,72.05
2023-02-06T14:29:31.674Z,71.70
2023-02-06T14:32:12.868Z,72.75
2023-02-06T14:34:56.264Z,72.80
2023-02-06T14:37:47.828Z,73.78
2023-02-06T14:40:22.209Z,74.48
2023-02-06T14:42:51.594Z,74.39
2023-02-06T14:45:33.821Z,73.04
2023-02-06T14:48:14.443Z,74.38
2023-02-06T14:50:49.513Z,73.83
2023-02-06T14:53:23.162Z,73.39
2023-02-06T14:55:51.191Z,73.29
2023-02-06T14:58:22.014Z,72.81
2023-02-06T15:00:49.876Z,72.82
2023-02-06T15:03:19.246Z,72.26
2023-02-06T15:05:58.735Z,72.16
2023-02-06T15:08:26.587Z,72.72
2023-02-06T15:10:59.226Z,72.14
2023-02-06T15:13:34.837Z,72.48
2023-02-06T15:16:04.852Z,72.35
2023-02-06T15:18:33.818Z,72.83
2023-02-06T15:21:08.141Z,73.46
2023-02-06T15:23:50.023Z,73.07
2023-02-06T15:26:32.167Z,74.03
2023-02-06T15:29:02.866Z,73.81
2023-02-06T15:31:32.065Z,73.35
2023-02-06T15:34:07.437Z,73.72
2023-02-06T15:36:41.520Z,73.45
2023-02-06T15:39:12.009Z,74.15
2023-02-06T15:41:41.372Z,74.20
2023-02-06T15:44:13.527Z,74.08
2023-02-06T15:46:44.465Z,73.93
2023-02-06T15:49:20.101Z,74.29
2023-02-06T15:51:58.431Z,74.24
2023-02-06T15:54:30.537Z,75.17
2023-02-06T15:57:09.820Z,74.70
2023-02-06T15:59:41.922Z,75.06
2023-02-06T16:02:26.216Z,74.68
2023-02-06T16:04:55.747Z,74.87
2023-02-06T16:07:27.598Z,74.77
2023-02-06T16:09:57.962Z,74.83
2023-02-06T16:12:26.474Z,75.05
2023-02-06T16:15:04.633Z,74.93
2023-02-06T16:17:35.556Z,75.33
2023-02-06T16:20:05.409Z,75.14
2023-02-06T16:22:37.819Z,75.74
2023-02-06T16:25:22.012Z,75.66
2023-02-06T16:27:51.261Z,75.09
2023-02-06T16:30:30.041Z,75.58
2023-02-06T16:33:00.259Z,75.60
2023-02-06T16:35:28.210Z,76.19
2023-02-06T16:37:57.676Z,76.37
2023-02-06T16:40:26.231Z,76.42
2023-02-06T16:42:54.242Z,75.78
2023-02-06T16:45:23.965Z,75.96
2023-02-06T16:47:52.134Z,75.83
2023-02-06T16:50:21.627Z,75.84
2023-02-06T16:52:51.806Z,76.26
2023-02-06T16:55:25.290Z,76.04
2023-02-06T16:57:55.457Z,76.30
2023-02-06T17:00:25.881Z,76.70
2023-02-06T17:02:54.627Z,77.13
2023-02-06T17:05:24.601Z,76.66
2023-02-06T17:07:53.131Z,77.12
2023-02-06T17:10:24.635Z,76.78
2023-02-06T17:12:53.010Z,76.53
2023-02-06T17:15:21.196Z,76.90
2023-02-06T17:17:53.755Z,77.38
2023-02-06T17:20:36.064Z,77.32
2023-02-06T17:23:04.875Z,77.12
2023-02-06T17:25:34.737Z,76.89
2023-02-06T17:28:03.216Z,77.17
2023-02-06T17:30:31.175Z,77.36
2023-02-06T17:33:01.914Z,77.55
2023-02-06T17:35:31.781Z,78.25
2023-02-06T17:38:00.289Z,78.51
2023-02-06T17:40:33.977Z,77.96
2023-02-06T17:43:04.708Z,78.21
2023-02-06T17:45:33.195Z,77.81
2023-02-06T17:48:01.568Z,78.00
2023-02-06T17:50:30.675Z,77.73
2023-02-06T17:53:00.296Z,77.56
2023-02-06T17:55:29.211Z,77.96
2023-02-06T17:58:10.905Z,78.04
2023-02-06T18:00:39.347Z,77.71
2023-02-06T18:03:07.457Z,78.19
2023-02-06T18:05:35.675Z,78.29
2023-02-06T18:08:03.860Z,77.77
2023-02-06T18:10:31.946Z,78.69
2023-02-06T18:12:59.836Z,78.46
2023-02-06T18:15:31.583Z,78.82
2023-02-06T18:18:01.195Z,78.55
2023-02-06T18:20:30.534Z,79.25
2023-02-06T18:22:58.749Z,79.00
2023-02-06T18:25:26.673Z,78.66
2023-02-06T18:27:54.698Z,78.81
2023-02-06T18:30:22.813Z,79.10
2023-02-06T18:32:52.094Z,79.26
2023-02-06T18:35:20.708Z,79.02
2023-02-06T18:37:50.068Z,79.09
2023-02-06T18:40:18.476Z,79.13
2023-02-06T18:42:54.206Z,79.54
2023-02-06T18:45:23.297Z,79.98
2023-02-06T18:47:53.267Z,79.71
2023-02-06T18:50:22.539Z,79.42
2023-02-06T18:52:50.930Z,79.80
2023-02-06T18:55:18.986Z,79.77
2023-02-06T18:57:47.406Z,80.59
2023-02-06T19:00:17.226Z,80.22
2023-02-06T19:02:45.239Z,80.71
2023-02-06T19:05:14.959Z,80.47
2023-02-06T19:07:43.184Z,80.50
2023-02-06T19:10:13.261Z,80.40
2023-02-06T19:12:41.102Z,80.26
2023-02-06T19:15:10.389Z,81.10
2023-02-06T19:17:42.577Z,80.45
2023-02-06T19:20:23.304Z,81.11
2023-02-06T19:22:52.794Z,81.31
2023-02-06T19:25:20.830Z,81.59
2023-02-06T19:27:48.905Z,81.58
2023-02-06T19:30:17.007Z,81.38
2023-02-06T19:32:45.024Z,80.74
2023-02-06T19:35:15.542Z,80.48
2023-02-06T19:37:47.113Z,81.38
2023-02-06T19:40:27.236Z,80.66
2023-02-06T19:42:55.502Z,80.35
2023-02-06T19:45:23.881Z,80.17
2023-02-06T19:47:51.909Z,80.17
2023-02-06T19:50:20.070Z,79.92
2023-02-06T19:52:50.315Z,80.05
2023-02-06T19:55:19.687Z,79.75
2023-02-06T19:57:47.755Z,80.55
2023-02-06T20:00:16.309Z,80.53
2023-02-06T20:02:44.435Z,80.71
2023-02-06T20:05:12.639Z,80.30
2023-02-06T20:07:43.463Z,79.81
2023-02-06T20:10:13.193Z,79.55
2023-02-06T20:12:41.344Z,79.54
2023-02-06T20:15:10.190Z,79.96
2023-02-06T20:17:38.167Z,80.09
2023-02-06T20:20:07.925Z,80.42
2023-02-06T20:23:24.592Z,81.08
2023-02-06T20:25:54.853Z,80.34
2023-02-06T20:28:25.052Z,80.27
2023-02-06T20:33:46.124Z,80.59
2023-02-06T20:39:16.874Z,80.99
2023-02-06T20:42:05.908Z,80.76
2023-02-06T20:44:59.878Z,81.11
2023-02-06T20:47:30.870Z,81.02
2023-02-06T20:50:17.660Z,81.85
2023-02-06T20:53:09.704Z,81.59
2023-02-06T20:56:15.108Z,82.09
2023-02-06T20:58:45.381Z,82.33
2023-02-06T21:01:16.628Z,81.54
2023-02-06T21:03:49.195Z,82.17
2023-02-06T21:06:19.079Z,81.46
2023-02-06T21:08:56.552Z,82.66
2023-02-06T21:11:30.363Z,82.47
2023-02-06T21:14:05.137Z,82.85
2023-02-06T21:16:34.553Z,82.58
2023-02-06T21:19:03.486Z,82.65
2023-02-06T21:21:32.071Z,83.39
2023-02-06T21:24:00.568Z,83.17
2023-02-06T21:26:29.562Z,83.29
2023-02-06T21:28:59.765Z,83.25
2023-02-06T21:31:36.879Z,82.96
2023-02-06T21:34:09.096Z,83.44
2023-02-06T21:36:41.837Z,83.13
2023-02-06T21:39:10.664Z,83.05
2023-02-06T21:41:38.767Z,83.19
2023-02-06T21:44:08.192Z,82.81
2023-02-06T21:46:36.331Z,82.96
2023-02-06T21:49:06.338Z,82.84
2023-02-06T21:51:34.455Z,82.27
2023-02-06T21:54:02.945Z,82.44
2023-02-06T21:56:32.110Z,82.28
2023-02-06T21:59:00.184Z,83.36
2023-02-06T22:01:33.121Z,82.79
2023-02-06T22:04:02.392Z,82.61
2023-02-06T22:06:30.765Z,82.95
2023-02-06T22:09:05.159Z,83.12
2023-02-06T22:11:33.657Z,82.75
2023-02-06T22:14:03.836Z,83.06
2023-02-06T22:16:33.927Z,83.12
2023-02-06T22:19:02.024Z,82.94
2023-02-06T22:21:31.696Z,83.33
2023-02-06T22:24:01.589Z,83.10
2023-02-06T22:26:31.241Z,82.69
2023-02-06T22:28:59.610Z,82.95
2023-02-06T22:31:31.320Z,82.52
2023-02-06T22:34:03.740Z,81.56
2023-02-06T22:36:33.837Z,82.09
2023-02-06T22:39:05.068Z,81.91
2023-02-06T22:41:33.568Z,81.79
2023-02-06T22:44:01.603Z,82.21
2023-02-06T22:46:31.329Z,82.90
2023-02-06T22:49:01.171Z,82.89
2023-02-06T22:51:29.855Z,83.10
2023-02-06T22:53:57.745Z,82.82
2023-02-06T22:56:37.313Z,82.72
2023-02-06T22:59:07.870Z,82.98
2023-02-06T23:01:38.285Z,83.32
2023-02-06T23:04:13.908Z,83.67
2023-02-06T23:06:43.387Z,83.18
2023-02-06T23:09:14.955Z,83.19
2023-02-06T23:11:45.791Z,83.38
2023-02-06T23:14:15.270Z,83.06
2023-02-06T23:16:43.959Z,83.60
2023-02-06T23:19:15.167Z,83.14
2023-02-06T23:21:45.245Z,83.98
2023-02-06T23:24:13.947Z,83.56
2023-02-06T23:26:42.926Z,84.44
2023-02-06T23:29:15.707Z,84.66
2023-02-06T23:31:45.894Z,83.99
2023-02-06T23:34:15.786Z,83.73
2023-02-06T23:36:44.106Z,83.81
2023-02-06T23:39:12.454Z,83.97
2023-02-06T23:41:40.417Z,83.41
2023-02-06T23:44:09.775Z,84.00
2023-02-06T23:46:39.296Z,83.68
2023-02-06T23:49:07.641Z,84.10
2023-02-06T23:51:37.951Z,83.91
2023-02-06T23:54:06.953Z,83.92
2023-02-06T23:56:35.825Z,84.31
2023-02-06T23:59:04.538Z,84.53
